Time;durP1;ratioP1;P1;durP2;ratioP2;P2;SDS_P1;SDS_P2;PMS_P1;PMS_P2;Temp;Humidity;BMP_temperature;BMP_pressure;BME280_temperature;BME280_humidity;BME280_pressure;Samples;Min_cycle;Max_cycle;Signal;HPM_P1;HPM_P2
2023/04/29 00:02:52;;;;;;;42.58;25.08;;;11.50;99.90;;;;;;12499230;28;20087;-40
2023/04/29 00:09:01;;;;;;;46.72;26.23;;;11.40;99.90;;;;;;12507670;28;20503;-40
2023/04/29 00:15:10;;;;;;;47.45;25.73;;;11.40;99.90;;;;;;12514020;28;20421;-41
2023/04/29 00:21:29;;;;;;;50.70;26.77;;;11.30;99.90;;;;;;12528173;28;20053;-41
2023/04/29 00:27:38;;;;;;;46.25;25.70;;;11.30;99.90;;;;;;12531028;28;20101;-40
2023/04/29 00:33:46;;;;;;;49.47;26.38;;;11.30;99.90;;;;;;12536036;28;20098;-40
2023/04/29 00:39:54;;;;;;;52.30;28.05;;;11.30;99.90;;;;;;12537120;28;20446;-40
2023/04/29 00:46:02;;;;;;;53.85;27.30;;;11.20;99.90;;;;;;12475744;28;20508;-40
2023/04/29 00:52:12;;;;;;;51.40;26.90;;;11.20;99.90;;;;;;12453975;28;20420;-41
2023/04/29 00:58:22;;;;;;;48.38;26.45;;;11.20;99.90;;;;;;12486516;28;20045;-41
2023/04/29 01:04:37;;;;;;;50.10;26.00;;;11.10;99.90;;;;;;12508272;28;20516;-40
2023/04/29 01:11:08;;;;;;;51.05;26.98;;;11.20;99.90;;;;;;12527897;28;20083;-41
2023/04/29 01:17:22;;;;;;;51.55;27.75;;;11.20;99.90;;;;;;12524881;28;20044;-40
2023/04/29 01:23:30;;;;;;;47.60;26.23;;;11.10;99.90;;;;;;12529976;28;20048;-42
2023/04/29 01:30:04;;;;;;;52.10;29.08;;;11.20;99.90;;;;;;12529221;28;20045;-40
2023/04/29 01:36:40;;;;;;;52.53;26.70;;;11.10;99.90;;;;;;12535981;28;20041;-40
2023/04/29 01:43:00;;;;;;;54.47;29.67;;;11.10;99.90;;;;;;12528725;28;20045;-39
2023/04/29 01:49:09;;;;;;;52.08;27.35;;;11.00;99.90;;;;;;12511254;28;20545;-40
2023/04/29 01:55:17;;;;;;;58.05;29.45;;;10.90;99.90;;;;;;12478522;28;20040;-40
2023/04/29 02:01:33;;;;;;;64.93;31.42;;;10.90;99.90;;;;;;12476581;28;20057;-40
2023/04/29 02:07:43;;;;;;;60.50;29.42;;;10.80;99.90;;;;;;12457197;28;20062;-41
2023/04/29 02:13:53;;;;;;;57.78;28.42;;;10.80;99.90;;;;;;12507565;28;20052;-41
2023/04/29 02:20:02;;;;;;;54.22;28.08;;;10.80;99.90;;;;;;12528775;28;20045;-40
2023/04/29 02:26:12;;;;;;;51.65;26.10;;;10.70;99.90;;;;;;12465676;28;20053;-41
2023/04/29 02:32:21;;;;;;;44.97;23.67;;;10.60;99.90;;;;;;12478814;28;20060;-42
2023/04/29 02:38:30;;;;;;;42.40;22.77;;;10.50;99.90;;;;;;12472669;28;20057;-40
2023/04/29 02:44:38;;;;;;;41.10;22.50;;;10.60;99.90;;;;;;12486526;28;20038;-40
2023/04/29 02:50:47;;;;;;;36.20;20.75;;;10.60;99.90;;;;;;12485411;28;20099;-41
2023/04/29 02:56:55;;;;;;;38.45;21.55;;;10.50;99.90;;;;;;12487902;28;20045;-40
2023/04/29 03:03:09;;;;;;;34.10;21.52;;;10.40;99.90;;;;;;12493406;28;20086;-40
2023/04/29 03:09:20;;;;;;;35.78;22.05;;;10.40;99.90;;;;;;12496532;28;20397;-41
2023/04/29 03:15:28;;;;;;;38.33;23.48;;;10.50;99.90;;;;;;12472817;28;20049;-40
2023/04/29 03:21:37;;;;;;;37.47;23.63;;;10.40;99.90;;;;;;12479994;28;20048;-39
2023/04/29 03:27:46;;;;;;;41.20;24.77;;;10.50;99.90;;;;;;12454457;28;20509;-41
2023/04/29 03:33:54;;;;;;;40.92;25.73;;;10.50;99.90;;;;;;12458796;28;20044;-41
2023/04/29 03:40:03;;;;;;;42.40;25.88;;;10.30;99.90;;;;;;12468389;28;20045;-40
2023/04/29 03:46:11;;;;;;;40.78;25.67;;;10.30;99.90;;;;;;12475811;28;20086;-39
2023/04/29 03:52:19;;;;;;;47.33;27.02;;;10.20;99.90;;;;;;12497146;28;20041;-40
2023/04/29 03:58:27;;;;;;;43.80;27.13;;;10.30;99.90;;;;;;12486531;28;20080;-40
2023/04/29 04:04:42;;;;;;;47.75;26.42;;;10.10;99.90;;;;;;12524452;28;20044;-40
2023/04/29 04:10:50;;;;;;;41.88;26.50;;;10.10;99.90;;;;;;12532253;28;20072;-39
2023/04/29 04:17:00;;;;;;;40.75;25.10;;;10.10;99.90;;;;;;12512361;28;20049;-40
2023/04/29 04:23:08;;;;;;;40.75;25.85;;;10.00;99.90;;;;;;12521662;28;20048;-40
2023/04/29 04:29:16;;;;;;;43.83;25.50;;;10.10;99.90;;;;;;12534710;28;20388;-42
2023/04/29 04:35:24;;;;;;;36.25;25.05;;;10.20;99.90;;;;;;12534811;28;20045;-39
2023/04/29 04:41:32;;;;;;;38.60;26.27;;;10.10;99.90;;;;;;12530279;28;20056;-40
2023/04/29 04:47:40;;;;;;;42.30;26.13;;;10.00;99.90;;;;;;12519639;28;20044;-40
2023/04/29 04:53:49;;;;;;;42.13;26.75;;;10.10;99.90;;;;;;12505700;28;20386;-40
2023/04/29 04:59:57;;;;;;;44.35;28.05;;;9.90;99.90;;;;;;12463641;28;20195;-40
2023/04/29 05:06:11;;;;;;;46.08;27.45;;;9.90;99.90;;;;;;12535643;28;20060;-41
2023/04/29 05:12:20;;;;;;;48.55;28.38;;;10.00;99.90;;;;;;12529627;28;20044;-40
2023/04/29 05:18:28;;;;;;;50.25;31.15;;;10.00;99.90;;;;;;12538550;28;20045;-40
2023/04/29 05:24:36;;;;;;;55.75;32.15;;;10.00;99.90;;;;;;12532797;28;20048;-40
2023/04/29 05:30:44;;;;;;;55.42;31.35;;;9.90;99.90;;;;;;12544325;28;20052;-42
2023/04/29 05:36:53;;;;;;;57.40;34.03;;;10.00;99.90;;;;;;12533287;28;20048;-40
2023/04/29 05:43:01;;;;;;;50.85;31.20;;;9.90;99.90;;;;;;12529778;28;20056;-39
2023/04/29 05:49:09;;;;;;;54.60;33.35;;;9.90;99.90;;;;;;12534135;28;20049;-39
2023/04/29 05:55:17;;;;;;;58.00;32.75;;;9.90;99.90;;;;;;12544559;28;20041;-40
2023/04/29 06:01:32;;;;;;;59.88;34.42;;;9.90;99.90;;;;;;12537282;28;20733;-38
2023/04/29 06:07:41;;;;;;;59.92;35.85;;;10.00;99.90;;;;;;12531042;28;20068;-39
2023/04/29 06:13:49;;;;;;;60.20;35.72;;;10.00;99.90;;;;;;12515021;28;21056;-39
2023/04/29 06:19:57;;;;;;;59.72;35.50;;;9.90;99.90;;;;;;12540344;28;20041;-38
2023/04/29 06:26:05;;;;;;;59.90;35.17;;;10.00;99.90;;;;;;12541798;28;20098;-39
2023/04/29 06:32:14;;;;;;;53.50;34.28;;;10.10;99.90;;;;;;12539341;28;20094;-39
2023/04/29 06:38:23;;;;;;;53.08;33.33;;;10.10;99.90;;;;;;12540076;28;20512;-39
2023/04/29 06:44:32;;;;;;;48.63;32.20;;;10.10;99.90;;;;;;12541794;28;20043;-39
2023/04/29 06:50:51;;;;;;;48.75;32.25;;;10.10;99.90;;;;;;12537521;28;20489;-41
2023/04/29 06:57:01;;;;;;;44.33;30.63;;;10.10;99.90;;;;;;12526320;28;20114;-39
2023/04/29 07:03:15;;;;;;;44.15;31.83;;;10.10;99.90;;;;;;12524099;28;20190;-40
2023/04/29 07:09:26;;;;;;;44.97;32.08;;;10.10;99.90;;;;;;12519552;28;20056;-40
2023/04/29 07:15:36;;;;;;;45.67;32.25;;;10.00;99.90;;;;;;12531271;28;20052;-40
2023/04/29 07:21:44;;;;;;;46.67;33.58;;;10.00;99.90;;;;;;12544027;28;20059;-39
2023/04/29 07:27:53;;;;;;;43.97;31.88;;;10.20;99.90;;;;;;12539149;28;20045;-39
2023/04/29 07:34:01;;;;;;;41.08;31.35;;;10.00;99.90;;;;;;12538993;28;20355;-39
2023/04/29 07:40:16;;;;;;;44.55;30.80;;;10.10;99.90;;;;;;12539979;28;20056;-39
2023/04/29 07:46:25;;;;;;;43.30;30.58;;;10.20;99.90;;;;;;12530678;28;20049;-40
2023/04/29 07:52:33;;;;;;;39.55;29.30;;;10.20;99.90;;;;;;12531669;28;20374;-40
2023/04/29 07:58:41;;;;;;;36.28;27.42;;;10.40;99.90;;;;;;12533804;28;20068;-40
2023/04/29 08:04:56;;;;;;;36.85;27.23;;;10.50;99.90;;;;;;12525858;28;20139;-40
2023/04/29 08:11:05;;;;;;;35.83;25.80;;;10.80;99.90;;;;;;12535912;28;20178;-40
2023/04/29 08:17:20;;;;;;;38.65;27.95;;;11.00;99.90;;;;;;12510745;28;20053;-40
2023/04/29 08:23:29;;;;;;;36.65;26.58;;;11.10;99.90;;;;;;12532056;28;20053;-41
2023/04/29 08:29:38;;;;;;;35.00;24.98;;;11.20;99.90;;;;;;12546115;28;20485;-41
2023/04/29 08:35:46;;;;;;;30.52;22.17;;;11.30;99.90;;;;;;12491160;28;20087;-40
2023/04/29 08:41:56;;;;;;;30.63;21.70;;;11.40;99.90;;;;;;12479383;28;20041;-41
2023/04/29 08:48:06;;;;;;;28.20;20.83;;;11.50;99.90;;;;;;12492493;28;20564;-40
2023/04/29 08:54:14;;;;;;;27.08;18.38;;;11.90;99.90;;;;;;12496462;28;20048;-41
2023/04/29 09:00:23;;;;;;;24.08;18.77;;;11.80;99.90;;;;;;12481348;28;20401;-41
2023/04/29 09:06:39;;;;;;;25.20;18.00;;;11.90;99.90;;;;;;12477993;28;20053;-40
2023/04/29 09:12:56;;;;;;;23.70;17.48;;;12.00;99.90;;;;;;12476089;28;20052;-41
2023/04/29 09:19:05;;;;;;;22.67;16.85;;;12.40;99.90;;;;;;12463844;28;20118;-41
2023/04/29 09:25:14;;;;;;;24.15;16.88;;;12.60;99.90;;;;;;12484814;28;20072;-40
2023/04/29 09:31:31;;;;;;;19.35;14.75;;;12.90;99.90;;;;;;12475214;28;20187;-41
2023/04/29 09:37:40;;;;;;;20.40;14.82;;;13.40;99.90;;;;;;12483362;28;20049;-41
2023/04/29 09:44:07;;;;;;;21.77;15.75;;;13.40;99.90;;;;;;12476428;28;20037;-41
2023/04/29 09:50:18;;;;;;;25.08;17.63;;;13.20;99.90;;;;;;12486699;28;20041;-41
2023/04/29 09:56:29;;;;;;;24.17;18.15;;;13.10;99.90;;;;;;12482176;28;20124;-41
2023/04/29 10:02:50;;;;;;;23.38;18.60;;;13.00;99.90;;;;;;12478422;28;20049;-41
2023/04/29 10:09:15;;;;;;;23.30;18.60;;;12.90;99.90;;;;;;12481749;28;20465;-41
2023/04/29 10:15:41;;;;;;;25.45;18.02;;;12.80;99.90;;;;;;12464146;28;20041;-42
2023/04/29 10:21:52;;;;;;;22.38;16.08;;;12.90;99.90;;;;;;12462633;28;20091;-42
2023/04/29 10:28:03;;;;;;;18.15;13.13;;;12.80;99.90;;;;;;12506725;28;20045;-41
2023/04/29 10:34:15;;;;;;;17.02;12.75;;;12.90;99.90;;;;;;12500360;28;20041;-41
2023/04/29 10:40:37;;;;;;;14.93;10.52;;;13.20;99.90;;;;;;12478056;28;20068;-42
2023/04/29 10:47:19;;;;;;;16.17;11.23;;;13.40;99.90;;;;;;12492000;28;20049;-41
2023/04/29 10:53:29;;;;;;;15.70;11.88;;;13.40;99.90;;;;;;12487174;28;20132;-41
2023/04/29 10:59:38;;;;;;;15.65;11.15;;;13.60;99.90;;;;;;12495093;28;20199;-42
2023/04/29 11:05:52;;;;;;;14.73;10.38;;;13.70;99.90;;;;;;12533989;28;20049;-41
2023/04/29 11:12:04;;;;;;;15.88;11.40;;;13.60;99.90;;;;;;12539478;28;20106;-41
2023/04/29 11:18:12;;;;;;;16.13;9.27;;;13.50;99.90;;;;;;12550373;28;20503;-41
2023/04/29 11:24:21;;;;;;;14.55;10.10;;;13.20;99.90;;;;;;12542872;28;20136;-41
2023/04/29 11:30:30;;;;;;;12.75;9.75;;;13.30;99.90;;;;;;12546738;28;20132;-41
2023/04/29 11:36:38;;;;;;;14.00;9.15;;;13.40;99.90;;;;;;12539426;28;21591;-42
2023/04/29 11:42:49;;;;;;;17.27;10.57;;;13.40;99.90;;;;;;12540076;28;20428;-41
2023/04/29 11:48:58;;;;;;;12.65;9.80;;;13.80;99.90;;;;;;12539511;28;20056;-41
2023/04/29 11:55:10;;;;;;;14.77;10.23;;;14.10;99.90;;;;;;12536486;28;20053;-41
2023/04/29 12:01:20;;;;;;;17.70;10.00;;;14.00;99.90;;;;;;12552430;28;20972;-41
2023/04/29 12:07:35;;;;;;;13.15;10.38;;;13.50;99.90;;;;;;12547823;28;20132;-41
2023/04/29 12:13:44;;;;;;;12.85;9.68;;;13.50;99.90;;;;;;12529042;28;20195;-42
2023/04/29 12:19:53;;;;;;;11.75;8.65;;;13.60;99.90;;;;;;12553415;28;20753;-41
2023/04/29 12:26:03;;;;;;;12.75;8.50;;;13.80;99.90;;;;;;12549319;28;20079;-43
2023/04/29 12:32:20;;;;;;;14.25;8.68;;;13.90;99.90;;;;;;12539189;28;20044;-38
2023/04/29 12:38:30;;;;;;;12.20;9.07;;;13.90;99.90;;;;;;12527770;28;20057;-37
2023/04/29 12:44:39;;;;;;;13.32;8.43;;;13.80;99.90;;;;;;12533848;28;20064;-38
2023/04/29 12:50:50;;;;;;;11.68;7.63;;;13.70;99.90;;;;;;12544988;28;20051;-38
2023/04/29 12:56:58;;;;;;;11.80;7.55;;;13.40;99.90;;;;;;12535657;28;20090;-38
2023/04/29 13:03:19;;;;;;;10.95;7.20;;;13.10;99.90;;;;;;12525300;28;20052;-38
2023/04/29 13:09:29;;;;;;;10.93;6.75;;;13.00;99.90;;;;;;12538227;28;20045;-38
2023/04/29 13:15:38;;;;;;;14.02;7.30;;;13.00;99.90;;;;;;12516546;28;20137;-38
2023/04/29 13:21:47;;;;;;;11.80;7.50;;;13.20;99.90;;;;;;12501599;28;20090;-38
2023/04/29 13:27:55;;;;;;;9.95;6.95;;;13.40;99.90;;;;;;12485230;28;20045;-38
2023/04/29 13:34:04;;;;;;;7.70;5.72;;;13.30;99.90;;;;;;12485292;28;20096;-38
2023/04/29 13:40:12;;;;;;;11.75;6.35;;;13.20;99.90;;;;;;12487502;28;20056;-38
2023/04/29 13:46:22;;;;;;;9.07;5.95;;;13.20;99.90;;;;;;12456352;28;20079;-38
2023/04/29 13:52:32;;;;;;;7.80;5.85;;;13.30;99.90;;;;;;12498513;28;20049;-38
2023/04/29 13:59:00;;;;;;;8.82;6.22;;;13.70;99.90;;;;;;12498052;28;20052;-38
2023/04/29 14:05:18;;;;;;;7.82;6.10;;;14.00;99.90;;;;;;12515468;28;20045;-38
2023/04/29 14:11:26;;;;;;;7.97;5.07;;;14.10;99.90;;;;;;12529585;28;20150;-38
2023/04/29 14:17:35;;;;;;;8.32;5.70;;;14.10;99.90;;;;;;12531291;28;20059;-38
2023/04/29 14:23:44;;;;;;;8.10;5.70;;;14.10;99.90;;;;;;12534133;28;20784;-39
2023/04/29 14:29:52;;;;;;;7.72;4.85;;;14.10;99.90;;;;;;12524769;28;20604;-39
2023/04/29 14:36:00;;;;;;;8.27;5.10;;;14.10;99.90;;;;;;12518378;28;20459;-39
2023/04/29 14:42:08;;;;;;;10.23;5.80;;;14.20;99.90;;;;;;12537177;28;20062;-38
2023/04/29 14:48:16;;;;;;;9.10;5.35;;;14.30;99.90;;;;;;12527174;28;20045;-38
2023/04/29 14:54:25;;;;;;;9.13;6.22;;;14.30;99.90;;;;;;12484031;28;20148;-37
2023/04/29 15:00:35;;;;;;;9.65;5.82;;;14.30;99.90;;;;;;12474653;28;20560;-38
2023/04/29 15:06:50;;;;;;;8.20;5.00;;;14.40;99.90;;;;;;12458314;28;20061;-38
2023/04/29 15:12:59;;;;;;;9.85;5.25;;;14.30;99.90;;;;;;12437049;28;20041;-37
2023/04/29 15:19:08;;;;;;;9.13;4.47;;;13.90;99.90;;;;;;12419775;28;20478;-38
2023/04/29 15:25:16;;;;;;;7.93;4.28;;;13.70;99.90;;;;;;12387909;28;20529;-38
2023/04/29 15:31:28;;;;;;;7.28;5.25;;;13.50;99.90;;;;;;12389014;28;20061;-37
2023/04/29 15:37:37;;;;;;;8.32;5.05;;;13.40;99.90;;;;;;12387019;28;20046;-37
2023/04/29 15:43:46;;;;;;;7.78;5.30;;;13.50;99.90;;;;;;12375757;28;20046;-38
2023/04/29 15:49:55;;;;;;;8.80;5.43;;;13.60;99.90;;;;;;12391100;28;20486;-38
2023/04/29 15:56:03;;;;;;;7.57;5.15;;;13.50;99.90;;;;;;12379163;28;20093;-38
2023/04/29 16:02:14;;;;;;;7.80;4.88;;;13.60;99.90;;;;;;12402081;28;20374;-37
2023/04/29 16:08:29;;;;;;;8.13;5.00;;;13.50;99.90;;;;;;12493573;28;20513;-38
2023/04/29 16:14:37;;;;;;;7.30;5.15;;;13.50;99.90;;;;;;12470323;28;20049;-38
2023/04/29 16:20:45;;;;;;;11.75;5.20;;;13.50;99.90;;;;;;12481927;28;20056;-37
2023/04/29 16:26:54;;;;;;;5.97;4.20;;;13.50;99.90;;;;;;12462593;28;20493;-37
2023/04/29 16:33:03;;;;;;;7.03;4.55;;;13.40;99.90;;;;;;12490043;28;20045;-38
2023/04/29 16:39:11;;;;;;;5.60;3.80;;;13.40;99.90;;;;;;12494016;28;20049;-38
2023/04/29 16:45:19;;;;;;;6.57;4.22;;;13.40;99.90;;;;;;12480310;28;20126;-38
2023/04/29 16:51:29;;;;;;;7.03;3.80;;;13.30;99.90;;;;;;12474692;28;20561;-37
2023/04/29 16:57:38;;;;;;;7.95;4.10;;;13.30;99.90;;;;;;12475276;28;20057;-38
2023/04/29 17:03:54;;;;;;;8.68;4.10;;;13.20;99.90;;;;;;12478986;28;20041;-38
2023/04/29 17:10:05;;;;;;;9.63;4.35;;;13.20;99.90;;;;;;12478250;28;20045;-38
2023/04/29 17:16:13;;;;;;;9.70;3.92;;;13.30;99.90;;;;;;12465531;28;20132;-38
2023/04/29 17:22:22;;;;;;;6.22;3.90;;;13.20;99.90;;;;;;12464760;28;20061;-37
2023/04/29 17:28:31;;;;;;;6.60;4.18;;;13.30;99.90;;;;;;12477190;28;20443;-38
2023/04/29 17:34:40;;;;;;;8.43;3.47;;;13.40;99.90;;;;;;12471519;28;20057;-38
2023/04/29 17:40:49;;;;;;;4.70;3.40;;;14.00;99.90;;;;;;12487219;28;20098;-38
2023/04/29 17:46:57;;;;;;;7.78;3.97;;;14.50;99.90;;;;;;12466257;28;20052;-38
2023/04/29 17:53:05;;;;;;;6.03;4.10;;;14.60;99.90;;;;;;12473042;28;20576;-38
2023/04/29 17:59:13;;;;;;;7.90;4.03;;;14.50;99.90;;;;;;12496480;28;20045;-38
2023/04/29 18:05:28;;;;;;;8.02;3.45;;;13.80;99.90;;;;;;12447415;28;20046;-38
2023/04/29 18:11:36;;;;;;;7.40;3.33;;;13.50;99.90;;;;;;12427300;28;20096;-37
2023/04/29 18:17:44;;;;;;;8.63;3.20;;;13.30;99.90;;;;;;12424539;28;20046;-38
2023/04/29 18:23:53;;;;;;;5.90;3.20;;;13.10;99.90;;;;;;12434253;28;20076;-37
2023/04/29 18:30:02;;;;;;;9.55;3.13;;;12.70;99.90;;;;;;12456522;28;20056;-38
2023/04/29 18:36:12;;;;;;;6.30;2.80;;;12.40;99.90;;;;;;12451153;28;20129;-38
2023/04/29 18:42:27;;;;;;;6.35;2.80;;;12.20;99.90;;;;;;12426357;28;20571;-38
2023/04/29 18:48:37;;;;;;;8.30;2.83;;;12.00;99.90;;;;;;12444643;28;20057;-37
2023/04/29 18:54:46;;;;;;;6.75;2.95;;;11.80;99.90;;;;;;12453623;28;20531;-38
2023/04/29 19:00:54;;;;;;;8.55;4.38;;;11.60;99.90;;;;;;12430615;28;20460;-38
2023/04/29 19:07:10;;;;;;;7.47;3.05;;;11.40;99.90;;;;;;12439594;28;20083;-38
2023/04/29 19:13:18;;;;;;;8.55;3.38;;;11.30;99.90;;;;;;12418910;28;20050;-38
2023/04/29 19:19:26;;;;;;;6.07;2.80;;;11.10;99.90;;;;;;12430843;28;20057;-38
2023/04/29 19:25:34;;;;;;;6.55;2.97;;;11.10;99.90;;;;;;12419706;28;20050;-38
2023/04/29 19:31:42;;;;;;;5.78;2.75;;;11.10;99.90;;;;;;12437571;28;20450;-38
2023/04/29 19:37:53;;;;;;;5.57;2.97;;;10.90;99.90;;;;;;12447262;28;20507;-38
2023/04/29 19:44:02;;;;;;;7.05;3.33;;;10.70;99.90;;;;;;12448640;28;20049;-38
2023/04/29 19:50:10;;;;;;;6.28;3.55;;;10.60;99.90;;;;;;12462333;28;20052;-38
2023/04/29 19:56:18;;;;;;;8.18;3.53;;;10.40;99.90;;;;;;12457129;28;20041;-37
2023/04/29 20:02:27;;;;;;;10.80;3.58;;;10.30;99.90;;;;;;12432988;28;20050;-37
2023/04/29 20:08:36;;;;;;;6.55;4.05;;;10.40;99.90;;;;;;12388649;28;20092;-38
2023/04/29 20:14:44;;;;;;;7.60;3.65;;;10.30;99.90;;;;;;12414029;28;20042;-37
2023/04/29 20:20:52;;;;;;;6.97;4.20;;;9.90;99.90;;;;;;12436015;28;20046;-37
2023/04/29 20:27:00;;;;;;;9.00;4.38;;;9.50;99.90;;;;;;12438767;28;20046;-37
2023/04/29 20:33:09;;;;;;;6.35;3.47;;;9.30;99.90;;;;;;12432018;28;20045;-37
2023/04/29 20:39:17;;;;;;;5.75;3.50;;;9.30;99.90;;;;;;12437553;28;20081;-38
2023/04/29 20:45:26;;;;;;;6.68;3.28;;;9.30;99.90;;;;;;12442732;28;20045;-38
2023/04/29 20:51:34;;;;;;;5.88;3.17;;;9.30;99.90;;;;;;12446115;28;20057;-39
2023/04/29 20:57:43;;;;;;;5.30;2.75;;;9.30;99.90;;;;;;12434067;28;20137;-38
2023/04/29 21:03:51;;;;;;;5.25;3.00;;;9.30;99.90;;;;;;12447099;28;20073;-37
2023/04/29 21:09:59;;;;;;;5.57;3.17;;;9.30;99.90;;;;;;12436554;28;20049;-37
2023/04/29 21:16:14;;;;;;;5.57;3.17;;;9.40;99.90;;;;;;12491080;28;20052;-37
2023/04/29 21:22:23;;;;;;;6.05;2.90;;;9.50;99.90;;;;;;12487725;28;20036;-37
2023/04/29 21:28:31;;;;;;;6.78;2.97;;;9.50;99.90;;;;;;12479450;28;20473;-38
2023/04/29 21:34:39;;;;;;;7.40;3.38;;;9.50;99.90;;;;;;12495558;28;20049;-37
2023/04/29 21:40:47;;;;;;;4.47;2.60;;;9.40;99.90;;;;;;12495757;28;20049;-37
2023/04/29 21:46:56;;;;;;;4.55;2.88;;;9.30;99.90;;;;;;12499602;28;20048;-37
2023/04/29 21:53:04;;;;;;;9.20;3.05;;;9.40;99.90;;;;;;12498910;28;20099;-38
2023/04/29 21:59:15;;;;;;;7.05;3.03;;;9.40;99.90;;;;;;12470608;28;20041;-37
2023/04/29 22:05:23;;;;;;;4.68;2.90;;;9.40;99.90;;;;;;12483517;28;20132;-37
2023/04/29 22:11:32;;;;;;;5.72;2.90;;;9.40;99.90;;;;;;12490416;28;20490;-37
2023/04/29 22:17:41;;;;;;;7.43;3.40;;;9.30;99.90;;;;;;12484256;28;20613;-37
2023/04/29 22:23:49;;;;;;;5.85;3.22;;;9.30;99.90;;;;;;12465152;28;20042;-37
2023/04/29 22:29:58;;;;;;;5.97;3.13;;;9.30;99.90;;;;;;12456638;28;20042;-37
2023/04/29 22:36:06;;;;;;;6.93;3.10;;;9.20;99.90;;;;;;12446135;28;20103;-37
2023/04/29 22:42:15;;;;;;;10.10;3.38;;;9.30;99.90;;;;;;12443063;28;20136;-43
2023/04/29 22:48:23;;;;;;;10.02;4.15;;;9.30;99.90;;;;;;12445301;28;20096;-37
2023/04/29 22:54:31;;;;;;;7.90;3.40;;;9.10;99.90;;;;;;12492893;28;20049;-43
2023/04/29 23:00:43;;;;;;;8.60;3.63;;;9.00;99.90;;;;;;12495238;28;20087;-38
2023/04/29 23:06:57;;;;;;;5.22;3.47;;;8.90;99.90;;;;;;12464091;28;20076;-37
2023/04/29 23:13:06;;;;;;;10.07;3.97;;;8.90;99.90;;;;;;12443926;28;20045;-37
2023/04/29 23:19:14;;;;;;;6.75;3.53;;;8.90;99.90;;;;;;12452746;28;20099;-37
2023/04/29 23:25:22;;;;;;;10.60;3.83;;;8.80;99.90;;;;;;12444279;28;20123;-37
2023/04/29 23:31:30;;;;;;;9.25;3.40;;;8.80;99.90;;;;;;12460258;28;20048;-37
2023/04/29 23:37:38;;;;;;;6.03;3.55;;;8.60;99.90;;;;;;12449882;28;20559;-37
2023/04/29 23:43:47;;;;;;;5.32;3.35;;;8.40;99.90;;;;;;12461064;28;20042;-37
2023/04/29 23:49:55;;;;;;;8.90;4.40;;;8.20;99.90;;;;;;12455612;28;20679;-38
2023/04/29 23:56:03;;;;;;;8.05;3.70;;;8.00;99.90;;;;;;12398595;28;20046;-37
